sensor_id;sensor_type;location;lat;lon;timestamp;pressure;altitude;pressure_sealevel;temperature;humidity
56821;BME280;42702;50.178;20.992;2022-11-22T00:01:06;98328.61;;;3.69;78.60
56821;BME280;42702;50.178;20.992;2022-11-22T00:03:34;98322.28;;;3.75;78.43
56821;BME280;42702;50.178;20.992;2022-11-22T00:06:03;98319.02;;;3.75;78.25
56821;BME280;42702;50.178;20.992;2022-11-22T00:08:31;98320.91;;;3.75;78.57
56821;BME280;42702;50.178;20.992;2022-11-22T00:11:00;98315.58;;;3.76;78.55
56821;BME280;42702;50.178;20.992;2022-11-22T00:13:28;98319.36;;;3.77;78.61
56821;BME280;42702;50.178;20.992;2022-11-22T00:16:01;98320.41;;;3.77;78.41
56821;BME280;42702;50.178;20.992;2022-11-22T00:18:30;98318.16;;;3.76;78.70
56821;BME280;42702;50.178;20.992;2022-11-22T00:21:04;98317.98;;;3.77;78.54
56821;BME280;42702;50.178;20.992;2022-11-22T00:23:33;98311.64;;;3.81;78.09
56821;BME280;42702;50.178;20.992;2022-11-22T00:26:01;98312.99;;;3.78;78.43
56821;BME280;42702;50.178;20.992;2022-11-22T00:28:29;98314.19;;;3.75;78.45
56821;BME280;42702;50.178;20.992;2022-11-22T00:30:57;98313.63;;;3.70;78.57
56821;BME280;42702;50.178;20.992;2022-11-22T00:33:25;98309.27;;;3.62;78.56
56821;BME280;42702;50.178;20.992;2022-11-22T00:35:53;98306.48;;;3.55;78.52
56821;BME280;42702;50.178;20.992;2022-11-22T00:38:22;98305.77;;;3.51;78.64
56821;BME280;42702;50.178;20.992;2022-11-22T00:40:50;98305.44;;;3.54;78.49
56821;BME280;42702;50.178;20.992;2022-11-22T00:43:18;98304.56;;;3.53;78.56
56821;BME280;42702;50.178;20.992;2022-11-22T00:45:46;98306.30;;;3.53;78.70
56821;BME280;42702;50.178;20.992;2022-11-22T00:48:14;98303.19;;;3.53;78.62
56821;BME280;42702;50.178;20.992;2022-11-22T00:50:42;98307.81;;;3.48;78.37
56821;BME280;42702;50.178;20.992;2022-11-22T00:53:10;98312.42;;;3.42;78.17
56821;BME280;42702;50.178;20.992;2022-11-22T00:55:38;98313.77;;;3.39;78.33
56821;BME280;42702;50.178;20.992;2022-11-22T00:58:07;98318.73;;;3.36;78.26
56821;BME280;42702;50.178;20.992;2022-11-22T01:00:35;98319.45;;;3.37;78.33
56821;BME280;42702;50.178;20.992;2022-11-22T01:03:03;98324.82;;;3.42;78.42
56821;BME280;42702;50.178;20.992;2022-11-22T01:05:31;98326.18;;;3.41;78.18
56821;BME280;42702;50.178;20.992;2022-11-22T01:07:59;98334.11;;;3.40;78.32
56821;BME280;42702;50.178;20.992;2022-11-22T01:10:27;98335.98;;;3.38;78.70
56821;BME280;42702;50.178;20.992;2022-11-22T01:12:56;98336.33;;;3.38;78.47
56821;BME280;42702;50.178;20.992;2022-11-22T01:15:25;98332.19;;;3.36;78.44
56821;BME280;42702;50.178;20.992;2022-11-22T01:17:53;98329.77;;;3.35;78.33
56821;BME280;42702;50.178;20.992;2022-11-22T01:20:21;98330.45;;;3.36;78.40
56821;BME280;42702;50.178;20.992;2022-11-22T01:22:50;98328.77;;;3.40;78.25
56821;BME280;42702;50.178;20.992;2022-11-22T01:25:18;98328.56;;;3.37;78.17
56821;BME280;42702;50.178;20.992;2022-11-22T01:27:46;98327.34;;;3.34;78.50
56821;BME280;42702;50.178;20.992;2022-11-22T01:30:14;98325.42;;;3.32;78.23
56821;BME280;42702;50.178;20.992;2022-11-22T01:32:43;98322.15;;;3.30;78.40
56821;BME280;42702;50.178;20.992;2022-11-22T01:35:11;98330.41;;;3.28;78.54
56821;BME280;42702;50.178;20.992;2022-11-22T01:37:40;98330.04;;;3.26;78.77
56821;BME280;42702;50.178;20.992;2022-11-22T01:40:09;98327.46;;;3.27;78.35
56821;BME280;42702;50.178;20.992;2022-11-22T01:42:43;98331.27;;;3.31;78.02
56821;BME280;42702;50.178;20.992;2022-11-22T01:48:02;98329.32;;;3.23;78.51
56821;BME280;42702;50.178;20.992;2022-11-22T01:50:35;98329.65;;;3.21;78.39
56821;BME280;42702;50.178;20.992;2022-11-22T01:53:09;98332.91;;;3.19;78.65
56821;BME280;42702;50.178;20.992;2022-11-22T01:55:41;98338.20;;;3.15;78.38
56821;BME280;42702;50.178;20.992;2022-11-22T01:58:11;98342.33;;;3.14;78.65
56821;BME280;42702;50.178;20.992;2022-11-22T02:00:42;98341.86;;;3.19;78.45
56821;BME280;42702;50.178;20.992;2022-11-22T02:03:13;98344.93;;;3.16;78.25
56821;BME280;42702;50.178;20.992;2022-11-22T02:05:42;98347.66;;;3.14;78.46
56821;BME280;42702;50.178;20.992;2022-11-22T02:08:41;98348.51;;;3.13;78.90
56821;BME280;42702;50.178;20.992;2022-11-22T02:11:12;98349.20;;;3.11;78.91
56821;BME280;42702;50.178;20.992;2022-11-22T02:13:41;98360.71;;;3.09;78.78
56821;BME280;42702;50.178;20.992;2022-11-22T02:16:11;98358.95;;;3.06;78.75
56821;BME280;42702;50.178;20.992;2022-11-22T02:18:40;98357.21;;;3.04;78.96
56821;BME280;42702;50.178;20.992;2022-11-22T02:21:09;98356.89;;;3.07;78.47
56821;BME280;42702;50.178;20.992;2022-11-22T02:26:18;98364.94;;;3.01;78.72
56821;BME280;42702;50.178;20.992;2022-11-22T02:28:46;98364.74;;;2.99;78.65
56821;BME280;42702;50.178;20.992;2022-11-22T02:31:44;98365.10;;;3.00;78.87
56821;BME280;42702;50.178;20.992;2022-11-22T02:34:13;98362.48;;;2.96;78.79
56821;BME280;42702;50.178;20.992;2022-11-22T02:36:45;98357.99;;;2.96;78.69
56821;BME280;42702;50.178;20.992;2022-11-22T02:39:19;98356.30;;;3.00;78.60
56821;BME280;42702;50.178;20.992;2022-11-22T02:41:48;98356.14;;;2.99;78.71
56821;BME280;42702;50.178;20.992;2022-11-22T02:44:18;98360.42;;;2.97;78.92
56821;BME280;42702;50.178;20.992;2022-11-22T02:46:54;98358.52;;;2.96;78.86
56821;BME280;42702;50.178;20.992;2022-11-22T02:49:23;98356.09;;;2.94;78.58
56821;BME280;42702;50.178;20.992;2022-11-22T02:51:52;98352.27;;;2.92;78.55
56821;BME280;42702;50.178;20.992;2022-11-22T02:54:21;98352.89;;;2.84;78.36
56821;BME280;42702;50.178;20.992;2022-11-22T02:56:49;98347.80;;;2.74;78.13
56821;BME280;42702;50.178;20.992;2022-11-22T02:59:17;98347.17;;;2.64;77.51
56821;BME280;42702;50.178;20.992;2022-11-22T03:01:46;98343.67;;;2.58;77.67
56821;BME280;42702;50.178;20.992;2022-11-22T03:04:15;98341.36;;;2.52;77.71
56821;BME280;42702;50.178;20.992;2022-11-22T03:06:54;98333.56;;;2.45;77.85
56821;BME280;42702;50.178;20.992;2022-11-22T03:09:23;98332.08;;;2.37;77.73
56821;BME280;42702;50.178;20.992;2022-11-22T03:11:53;98336.39;;;2.24;77.78
56821;BME280;42702;50.178;20.992;2022-11-22T03:14:21;98332.92;;;2.20;78.18
56821;BME280;42702;50.178;20.992;2022-11-22T03:16:50;98331.70;;;2.19;78.27
56821;BME280;42702;50.178;20.992;2022-11-22T03:19:18;98330.52;;;2.22;78.53
56821;BME280;42702;50.178;20.992;2022-11-22T03:21:47;98329.77;;;2.30;77.97
56821;BME280;42702;50.178;20.992;2022-11-22T03:24:16;98326.76;;;2.23;77.70
56821;BME280;42702;50.178;20.992;2022-11-22T03:26:48;98323.38;;;2.15;77.62
56821;BME280;42702;50.178;20.992;2022-11-22T03:29:17;98320.04;;;2.07;77.71
56821;BME280;42702;50.178;20.992;2022-11-22T03:31:45;98317.39;;;2.02;77.56
56821;BME280;42702;50.178;20.992;2022-11-22T03:34:13;98315.60;;;1.96;77.85
56821;BME280;42702;50.178;20.992;2022-11-22T03:36:42;98309.33;;;1.90;77.87
56821;BME280;42702;50.178;20.992;2022-11-22T03:39:10;98316.15;;;1.87;78.03
56821;BME280;42702;50.178;20.992;2022-11-22T03:41:38;98315.43;;;1.84;77.87
56821;BME280;42702;50.178;20.992;2022-11-22T03:44:07;98319.08;;;1.87;77.33
56821;BME280;42702;50.178;20.992;2022-11-22T03:46:35;98315.74;;;1.82;77.70
56821;BME280;42702;50.178;20.992;2022-11-22T03:49:03;98319.11;;;1.77;77.66
56821;BME280;42702;50.178;20.992;2022-11-22T03:51:31;98320.93;;;1.71;77.51
56821;BME280;42702;50.178;20.992;2022-11-22T03:54:00;98322.23;;;1.65;77.56
56821;BME280;42702;50.178;20.992;2022-11-22T03:56:28;98329.73;;;1.63;77.70
56821;BME280;42702;50.178;20.992;2022-11-22T03:58:56;98330.52;;;1.58;77.54
56821;BME280;42702;50.178;20.992;2022-11-22T04:01:24;98328.71;;;1.52;77.82
56821;BME280;42702;50.178;20.992;2022-11-22T04:03:52;98330.41;;;1.51;77.60
56821;BME280;42702;50.178;20.992;2022-11-22T04:06:20;98330.30;;;1.55;77.86
56821;BME280;42702;50.178;20.992;2022-11-22T04:08:48;98331.14;;;1.54;77.97
56821;BME280;42702;50.178;20.992;2022-11-22T04:11:16;98334.94;;;1.54;78.17
56821;BME280;42702;50.178;20.992;2022-11-22T04:13:45;98328.41;;;1.55;78.37
56821;BME280;42702;50.178;20.992;2022-11-22T04:16:31;98330.13;;;1.53;78.35
56821;BME280;42702;50.178;20.992;2022-11-22T04:19:00;98326.50;;;1.52;78.38
56821;BME280;42702;50.178;20.992;2022-11-22T04:21:28;98325.45;;;1.52;78.25
56821;BME280;42702;50.178;20.992;2022-11-22T04:24:06;98324.77;;;1.53;78.18
56821;BME280;42702;50.178;20.992;2022-11-22T04:26:54;98329.87;;;1.59;78.06
56821;BME280;42702;50.178;20.992;2022-11-22T04:29:23;98327.20;;;1.54;78.06
56821;BME280;42702;50.178;20.992;2022-11-22T04:31:51;98330.59;;;1.51;78.13
56821;BME280;42702;50.178;20.992;2022-11-22T04:34:38;98329.71;;;1.49;78.06
56821;BME280;42702;50.178;20.992;2022-11-22T04:37:06;98331.20;;;1.46;78.29
56821;BME280;42702;50.178;20.992;2022-11-22T04:39:34;98331.50;;;1.43;78.07
56821;BME280;42702;50.178;20.992;2022-11-22T04:42:02;98334.55;;;1.40;78.08
56821;BME280;42702;50.178;20.992;2022-11-22T04:44:49;98334.14;;;1.36;78.11
56821;BME280;42702;50.178;20.992;2022-11-22T04:47:18;98335.08;;;1.42;78.22
56821;BME280;42702;50.178;20.992;2022-11-22T04:50:07;98342.92;;;1.48;78.15
56821;BME280;42702;50.178;20.992;2022-11-22T04:52:56;98347.06;;;1.49;78.43
56821;BME280;42702;50.178;20.992;2022-11-22T04:55:24;98351.39;;;1.52;78.37
56821;BME280;42702;50.178;20.992;2022-11-22T04:57:53;98350.77;;;1.56;78.45
56821;BME280;42702;50.178;20.992;2022-11-22T05:00:28;98353.73;;;1.59;78.63
56821;BME280;42702;50.178;20.992;2022-11-22T05:02:57;98351.52;;;1.61;78.60
56821;BME280;42702;50.178;20.992;2022-11-22T05:05:26;98343.29;;;1.61;78.24
56821;BME280;42702;50.178;20.992;2022-11-22T05:07:56;98335.11;;;1.55;78.09
56821;BME280;42702;50.178;20.992;2022-11-22T05:10:24;98333.73;;;1.55;77.92
56821;BME280;42702;50.178;20.992;2022-11-22T05:12:54;98336.25;;;1.51;78.38
56821;BME280;42702;50.178;20.992;2022-11-22T05:15:23;98334.55;;;1.51;78.47
56821;BME280;42702;50.178;20.992;2022-11-22T05:17:51;98340.13;;;1.46;78.16
56821;BME280;42702;50.178;20.992;2022-11-22T05:20:19;98335.20;;;1.38;78.48
56821;BME280;42702;50.178;20.992;2022-11-22T05:22:47;98336.61;;;1.29;78.44
56821;BME280;42702;50.178;20.992;2022-11-22T05:25:34;98333.30;;;1.26;78.61
56821;BME280;42702;50.178;20.992;2022-11-22T05:28:02;98334.86;;;1.27;78.45
56821;BME280;42702;50.178;20.992;2022-11-22T05:30:30;98339.08;;;1.23;78.68
56821;BME280;42702;50.178;20.992;2022-11-22T05:32:58;98345.52;;;1.17;78.98
56821;BME280;42702;50.178;20.992;2022-11-22T05:35:26;98343.13;;;1.19;79.19
56821;BME280;42702;50.178;20.992;2022-11-22T05:37:56;98341.23;;;1.19;79.07
56821;BME280;42702;50.178;20.992;2022-11-22T05:40:25;98339.66;;;1.16;79.09
56821;BME280;42702;50.178;20.992;2022-11-22T05:42:53;98343.46;;;1.18;79.13
56821;BME280;42702;50.178;20.992;2022-11-22T05:45:21;98342.70;;;1.24;79.04
56821;BME280;42702;50.178;20.992;2022-11-22T05:47:49;98345.45;;;1.24;78.93
56821;BME280;42702;50.178;20.992;2022-11-22T05:50:17;98345.58;;;1.22;79.21
56821;BME280;42702;50.178;20.992;2022-11-22T05:52:54;98345.52;;;1.28;79.33
56821;BME280;42702;50.178;20.992;2022-11-22T05:55:22;98347.30;;;1.32;79.14
56821;BME280;42702;50.178;20.992;2022-11-22T05:57:50;98350.08;;;1.34;79.16
56821;BME280;42702;50.178;20.992;2022-11-22T06:00:18;98348.70;;;1.33;79.29
56821;BME280;42702;50.178;20.992;2022-11-22T06:02:46;98345.40;;;1.31;78.81
56821;BME280;42702;50.178;20.992;2022-11-22T06:05:14;98349.02;;;1.32;78.53
56821;BME280;42702;50.178;20.992;2022-11-22T06:07:43;98353.13;;;1.31;78.91
56821;BME280;42702;50.178;20.992;2022-11-22T06:10:11;98355.34;;;1.31;79.18
56821;BME280;42702;50.178;20.992;2022-11-22T06:12:40;98353.77;;;1.29;79.00
56821;BME280;42702;50.178;20.992;2022-11-22T06:15:08;98365.46;;;1.30;79.36
56821;BME280;42702;50.178;20.992;2022-11-22T06:17:36;98368.91;;;1.31;79.24
56821;BME280;42702;50.178;20.992;2022-11-22T06:20:05;98362.08;;;1.33;79.13
56821;BME280;42702;50.178;20.992;2022-11-22T06:22:33;98371.06;;;1.37;78.85
56821;BME280;42702;50.178;20.992;2022-11-22T06:25:02;98372.94;;;1.36;78.89
56821;BME280;42702;50.178;20.992;2022-11-22T06:27:30;98373.07;;;1.34;78.98
56821;BME280;42702;50.178;20.992;2022-11-22T06:29:58;98372.17;;;1.31;79.09
56821;BME280;42702;50.178;20.992;2022-11-22T06:32:27;98374.91;;;1.30;79.33
56821;BME280;42702;50.178;20.992;2022-11-22T06:34:55;98380.10;;;1.33;79.37
56821;BME280;42702;50.178;20.992;2022-11-22T06:37:23;98379.41;;;1.33;78.99
56821;BME280;42702;50.178;20.992;2022-11-22T06:39:51;98376.23;;;1.37;78.73
56821;BME280;42702;50.178;20.992;2022-11-22T06:42:19;98373.46;;;1.37;78.86
56821;BME280;42702;50.178;20.992;2022-11-22T06:44:48;98366.90;;;1.34;79.05
56821;BME280;42702;50.178;20.992;2022-11-22T06:47:16;98370.71;;;1.37;79.08
56821;BME280;42702;50.178;20.992;2022-11-22T06:49:44;98375.88;;;1.38;79.10
56821;BME280;42702;50.178;20.992;2022-11-22T06:52:13;98372.45;;;1.38;79.18
56821;BME280;42702;50.178;20.992;2022-11-22T06:54:41;98369.21;;;1.40;79.28
56821;BME280;42702;50.178;20.992;2022-11-22T06:57:12;98372.38;;;1.44;79.24
56821;BME280;42702;50.178;20.992;2022-11-22T06:59:41;98375.42;;;1.52;79.01
56821;BME280;42702;50.178;20.992;2022-11-22T07:02:10;98375.43;;;1.53;79.20
56821;BME280;42702;50.178;20.992;2022-11-22T07:04:39;98379.08;;;1.55;79.36
56821;BME280;42702;50.178;20.992;2022-11-22T07:07:27;98384.95;;;1.57;79.44
56821;BME280;42702;50.178;20.992;2022-11-22T07:09:55;98383.30;;;1.60;79.66
56821;BME280;42702;50.178;20.992;2022-11-22T07:12:23;98382.15;;;1.64;79.56
56821;BME280;42702;50.178;20.992;2022-11-22T07:14:52;98384.41;;;1.66;79.45
56821;BME280;42702;50.178;20.992;2022-11-22T07:17:20;98380.16;;;1.70;79.13
56821;BME280;42702;50.178;20.992;2022-11-22T07:19:48;98382.77;;;1.73;79.20
56821;BME280;42702;50.178;20.992;2022-11-22T07:22:17;98381.90;;;1.71;79.58
56821;BME280;42702;50.178;20.992;2022-11-22T07:24:45;98381.94;;;1.73;79.51
56821;BME280;42702;50.178;20.992;2022-11-22T07:27:13;98381.41;;;1.72;79.38
56821;BME280;42702;50.178;20.992;2022-11-22T07:29:41;98376.63;;;1.75;79.63
56821;BME280;42702;50.178;20.992;2022-11-22T07:32:09;98376.64;;;1.76;79.61
56821;BME280;42702;50.178;20.992;2022-11-22T07:34:37;98377.39;;;1.79;79.64
56821;BME280;42702;50.178;20.992;2022-11-22T07:37:05;98374.71;;;1.84;79.40
56821;BME280;42702;50.178;20.992;2022-11-22T07:39:36;98375.27;;;1.87;79.88
56821;BME280;42702;50.178;20.992;2022-11-22T07:42:04;98375.48;;;1.91;79.85
56821;BME280;42702;50.178;20.992;2022-11-22T07:44:32;98381.19;;;1.92;79.78
56821;BME280;42702;50.178;20.992;2022-11-22T07:47:00;98378.45;;;1.94;79.96
56821;BME280;42702;50.178;20.992;2022-11-22T07:49:28;98376.95;;;1.96;80.00
56821;BME280;42702;50.178;20.992;2022-11-22T07:51:57;98381.13;;;2.01;80.02
56821;BME280;42702;50.178;20.992;2022-11-22T07:54:26;98385.55;;;2.10;79.92
56821;BME280;42702;50.178;20.992;2022-11-22T07:56:54;98385.14;;;2.17;79.74
56821;BME280;42702;50.178;20.992;2022-11-22T07:59:22;98378.48;;;2.22;79.82
56821;BME280;42702;50.178;20.992;2022-11-22T08:01:50;98378.39;;;2.28;79.86
56821;BME280;42702;50.178;20.992;2022-11-22T08:04:19;98375.33;;;2.31;79.63
56821;BME280;42702;50.178;20.992;2022-11-22T08:06:47;98377.42;;;2.34;79.92
56821;BME280;42702;50.178;20.992;2022-11-22T08:09:15;98378.66;;;2.36;79.78
56821;BME280;42702;50.178;20.992;2022-11-22T08:11:45;98378.44;;;2.45;79.74
56821;BME280;42702;50.178;20.992;2022-11-22T08:14:13;98375.75;;;2.50;79.75
56821;BME280;42702;50.178;20.992;2022-11-22T08:16:42;98378.52;;;2.53;79.97
56821;BME280;42702;50.178;20.992;2022-11-22T08:19:10;98378.77;;;2.59;79.72
56821;BME280;42702;50.178;20.992;2022-11-22T08:21:43;98382.81;;;2.66;80.00
56821;BME280;42702;50.178;20.992;2022-11-22T08:24:12;98389.57;;;2.71;79.61
56821;BME280;42702;50.178;20.992;2022-11-22T08:26:41;98391.15;;;2.74;79.65
56821;BME280;42702;50.178;20.992;2022-11-22T08:29:11;98389.86;;;2.80;79.51
56821;BME280;42702;50.178;20.992;2022-11-22T08:31:41;98393.23;;;2.91;79.03
56821;BME280;42702;50.178;20.992;2022-11-22T08:34:09;98397.59;;;2.95;79.44
56821;BME280;42702;50.178;20.992;2022-11-22T08:36:37;98395.89;;;2.99;79.38
56821;BME280;42702;50.178;20.992;2022-11-22T08:39:06;98400.41;;;3.03;78.87
56821;BME280;42702;50.178;20.992;2022-11-22T08:41:34;98398.36;;;3.06;79.46
56821;BME280;42702;50.178;20.992;2022-11-22T08:44:02;98387.77;;;3.13;78.87
56821;BME280;42702;50.178;20.992;2022-11-22T08:46:30;98385.23;;;3.18;78.96
56821;BME280;42702;50.178;20.992;2022-11-22T08:48:59;98376.88;;;3.27;78.78
56821;BME280;42702;50.178;20.992;2022-11-22T08:51:27;98371.10;;;3.36;78.57
56821;BME280;42702;50.178;20.992;2022-11-22T08:53:55;98367.88;;;3.42;78.66
56821;BME280;42702;50.178;20.992;2022-11-22T08:56:23;98376.36;;;3.47;78.84
56821;BME280;42702;50.178;20.992;2022-11-22T08:58:52;98379.66;;;3.52;78.80
56821;BME280;42702;50.178;20.992;2022-11-22T09:01:21;98379.03;;;3.58;78.71
56821;BME280;42702;50.178;20.992;2022-11-22T09:03:50;98371.14;;;3.64;78.77
56821;BME280;42702;50.178;20.992;2022-11-22T09:06:19;98370.66;;;3.69;78.39
56821;BME280;42702;50.178;20.992;2022-11-22T09:09:07;98373.30;;;3.76;78.25
56821;BME280;42702;50.178;20.992;2022-11-22T09:11:56;98370.77;;;3.83;78.42
56821;BME280;42702;50.178;20.992;2022-11-22T09:14:24;98373.42;;;3.95;77.82
56821;BME280;42702;50.178;20.992;2022-11-22T09:16:52;98378.13;;;4.01;77.62
56821;BME280;42702;50.178;20.992;2022-11-22T09:19:20;98385.05;;;4.07;77.74
56821;BME280;42702;50.178;20.992;2022-11-22T09:21:48;98384.55;;;4.11;77.75
56821;BME280;42702;50.178;20.992;2022-11-22T09:24:16;98370.60;;;4.14;77.42
56821;BME280;42702;50.178;20.992;2022-11-22T09:26:45;98372.35;;;4.20;77.30
56821;BME280;42702;50.178;20.992;2022-11-22T09:29:13;98376.20;;;4.26;77.54
56821;BME280;42702;50.178;20.992;2022-11-22T09:31:42;98380.17;;;4.33;77.50
56821;BME280;42702;50.178;20.992;2022-11-22T09:34:10;98383.30;;;4.37;77.06
56821;BME280;42702;50.178;20.992;2022-11-22T09:36:39;98380.40;;;4.42;77.12
56821;BME280;42702;50.178;20.992;2022-11-22T09:39:07;98377.31;;;4.45;76.90
56821;BME280;42702;50.178;20.992;2022-11-22T09:52:53;98372.55;;;4.69;76.29
56821;BME280;42702;50.178;20.992;2022-11-22T09:58:59;98352.39;;;4.80;76.11
56821;BME280;42702;50.178;20.992;2022-11-22T10:01:11;98350.35;;;4.89;76.04
56821;BME280;42702;50.178;20.992;2022-11-22T10:04:14;98346.55;;;4.93;75.91
56821;BME280;42702;50.178;20.992;2022-11-22T10:06:42;98348.64;;;5.01;75.76
56821;BME280;42702;50.178;20.992;2022-11-22T10:11:54;98345.73;;;5.12;75.29
56821;BME280;42702;50.178;20.992;2022-11-22T10:20:16;98324.30;;;5.47;74.92
56821;BME280;42702;50.178;20.992;2022-11-22T10:22:44;98326.55;;;5.59;75.07
56821;BME280;42702;50.178;20.992;2022-11-22T10:25:19;98333.61;;;5.68;74.60
56821;BME280;42702;50.178;20.992;2022-11-22T10:27:59;98339.48;;;5.74;74.53
56821;BME280;42702;50.178;20.992;2022-11-22T10:30:35;98338.61;;;5.83;74.38
56821;BME280;42702;50.178;20.992;2022-11-22T10:33:16;98339.27;;;5.90;74.39
56821;BME280;42702;50.178;20.992;2022-11-22T10:41:55;98345.15;;;6.08;73.96
56821;BME280;42702;50.178;20.992;2022-11-22T10:47:15;98343.75;;;6.14;73.19
56821;BME280;42702;50.178;20.992;2022-11-22T10:50:03;98346.70;;;6.18;73.44
56821;BME280;42702;50.178;20.992;2022-11-22T10:55:56;98345.41;;;6.30;73.62
56821;BME280;42702;50.178;20.992;2022-11-22T11:01:17;98333.63;;;6.36;72.53
56821;BME280;42702;50.178;20.992;2022-11-22T11:03:52;98334.84;;;6.37;72.96
56821;BME280;42702;50.178;20.992;2022-11-22T11:06:55;98330.50;;;6.42;72.87
56821;BME280;42702;50.178;20.992;2022-11-22T11:09:54;98322.14;;;6.51;72.70
56821;BME280;42702;50.178;20.992;2022-11-22T11:18:04;98328.87;;;6.55;72.09
56821;BME280;42702;50.178;20.992;2022-11-22T11:20:37;98334.23;;;6.56;72.03
56821;BME280;42702;50.178;20.992;2022-11-22T11:23:08;98333.89;;;6.56;72.09
56821;BME280;42702;50.178;20.992;2022-11-22T11:25:44;98336.14;;;6.56;72.27
56821;BME280;42702;50.178;20.992;2022-11-22T11:28:27;98343.24;;;6.57;72.46
56821;BME280;42702;50.178;20.992;2022-11-22T11:31:07;98343.95;;;6.57;72.42
56821;BME280;42702;50.178;20.992;2022-11-22T11:33:38;98349.13;;;6.56;72.01
56821;BME280;42702;50.178;20.992;2022-11-22T11:36:10;98343.94;;;6.55;72.12
56821;BME280;42702;50.178;20.992;2022-11-22T11:41:30;98335.66;;;6.50;71.82
56821;BME280;42702;50.178;20.992;2022-11-22T11:44:01;98338.61;;;6.47;71.79
56821;BME280;42702;50.178;20.992;2022-11-22T11:49:20;98336.38;;;6.43;71.54
56821;BME280;42702;50.178;20.992;2022-11-22T11:52:04;98334.80;;;6.46;71.62
56821;BME280;42702;50.178;20.992;2022-11-22T11:54:46;98332.38;;;6.46;71.75
56821;BME280;42702;50.178;20.992;2022-11-22T11:57:19;98329.10;;;6.45;71.41
56821;BME280;42702;50.178;20.992;2022-11-22T11:59:49;98328.58;;;6.46;71.95
56821;BME280;42702;50.178;20.992;2022-11-22T12:05:24;98323.73;;;6.48;71.62
56821;BME280;42702;50.178;20.992;2022-11-22T12:07:53;98324.76;;;6.49;71.41
56821;BME280;42702;50.178;20.992;2022-11-22T12:13:41;98318.85;;;6.50;71.21
56821;BME280;42702;50.178;20.992;2022-11-22T12:16:38;98311.95;;;6.48;71.38
56821;BME280;42702;50.178;20.992;2022-11-22T12:22:06;98315.42;;;6.45;71.31
56821;BME280;42702;50.178;20.992;2022-11-22T12:25:37;98317.85;;;6.44;71.36
56821;BME280;42702;50.178;20.992;2022-11-22T12:30:38;98314.58;;;6.40;71.31
56821;BME280;42702;50.178;20.992;2022-11-22T12:33:19;98315.45;;;6.39;71.03
56821;BME280;42702;50.178;20.992;2022-11-22T12:35:52;98318.56;;;6.39;71.25
56821;BME280;42702;50.178;20.992;2022-11-22T12:38:30;98315.45;;;6.37;71.25
56821;BME280;42702;50.178;20.992;2022-11-22T12:41:02;98308.17;;;6.41;70.95
56821;BME280;42702;50.178;20.992;2022-11-22T12:43:41;98310.94;;;6.44;71.10
56821;BME280;42702;50.178;20.992;2022-11-22T12:46:37;98303.32;;;6.43;71.27
56821;BME280;42702;50.178;20.992;2022-11-22T12:49:20;98302.45;;;6.43;71.37
56821;BME280;42702;50.178;20.992;2022-11-22T12:52:00;98295.35;;;6.43;70.98
56821;BME280;42702;50.178;20.992;2022-11-22T12:54:41;98293.96;;;6.43;71.01
56821;BME280;42702;50.178;20.992;2022-11-22T12:57:31;98296.05;;;6.42;71.08
56821;BME280;42702;50.178;20.992;2022-11-22T13:00:13;98299.34;;;6.41;71.08
56821;BME280;42702;50.178;20.992;2022-11-22T13:02:59;98294.34;;;6.39;71.08
56821;BME280;42702;50.178;20.992;2022-11-22T13:08:13;98284.84;;;6.34;70.89
56821;BME280;42702;50.178;20.992;2022-11-22T13:10:48;98287.63;;;6.32;71.18
56821;BME280;42702;50.178;20.992;2022-11-22T13:13:33;98289.71;;;6.27;70.97
56821;BME280;42702;50.178;20.992;2022-11-22T13:16:07;98291.64;;;6.23;70.82
56821;BME280;42702;50.178;20.992;2022-11-22T13:18:49;98287.50;;;6.20;70.93
56821;BME280;42702;50.178;20.992;2022-11-22T13:21:32;98289.76;;;6.16;70.77
56821;BME280;42702;50.178;20.992;2022-11-22T13:27:16;98289.96;;;6.10;71.14
56821;BME280;42702;50.178;20.992;2022-11-22T13:29:46;98288.76;;;6.08;70.64
56821;BME280;42702;50.178;20.992;2022-11-22T13:32:18;98288.58;;;6.11;70.61
56821;BME280;42702;50.178;20.992;2022-11-22T13:38:16;98282.54;;;6.07;70.87
56821;BME280;42702;50.178;20.992;2022-11-22T13:40:45;98286.17;;;6.06;70.84
56821;BME280;42702;50.178;20.992;2022-11-22T13:45:54;98285.50;;;6.00;70.23
56821;BME280;42702;50.178;20.992;2022-11-22T13:51:10;98283.77;;;5.93;70.60
56821;BME280;42702;50.178;20.992;2022-11-22T13:53:41;98283.42;;;5.88;70.53
56821;BME280;42702;50.178;20.992;2022-11-22T14:06:46;98278.30;;;5.68;71.25
56821;BME280;42702;50.178;20.992;2022-11-22T14:15:02;98271.40;;;5.62;71.57
56821;BME280;42702;50.178;20.992;2022-11-22T14:26:26;98275.23;;;5.38;71.86
56821;BME280;42702;50.178;20.992;2022-11-22T14:32:01;98274.73;;;5.19;72.29
56821;BME280;42702;50.178;20.992;2022-11-22T14:34:31;98276.64;;;5.13;72.28
56821;BME280;42702;50.178;20.992;2022-11-22T14:45:24;98284.75;;;4.97;72.38
56821;BME280;42702;50.178;20.992;2022-11-22T14:48:10;98287.66;;;4.90;72.45
56821;BME280;42702;50.178;20.992;2022-11-22T14:50:44;98285.23;;;4.79;72.60
56821;BME280;42702;50.178;20.992;2022-11-22T14:53:32;98287.65;;;4.73;72.77
56821;BME280;42702;50.178;20.992;2022-11-22T14:56:26;98291.43;;;4.66;72.85
56821;BME280;42702;50.178;20.992;2022-11-22T15:02:04;98292.27;;;4.51;73.08
56821;BME280;42702;50.178;20.992;2022-11-22T15:16:20;98295.80;;;4.26;73.17
56821;BME280;42702;50.178;20.992;2022-11-22T15:19:44;98298.71;;;4.19;73.29
56821;BME280;42702;50.178;20.992;2022-11-22T15:22:32;98302.98;;;4.12;73.27
56821;BME280;42702;50.178;20.992;2022-11-22T15:25:21;98301.09;;;4.08;73.65
56821;BME280;42702;50.178;20.992;2022-11-22T15:28:18;98302.61;;;4.05;73.56
56821;BME280;42702;50.178;20.992;2022-11-22T15:31:12;98302.08;;;3.99;73.53
56821;BME280;42702;50.178;20.992;2022-11-22T15:34:01;98306.37;;;3.95;73.66
56821;BME280;42702;50.178;20.992;2022-11-22T15:36:59;98304.11;;;3.92;73.62
56821;BME280;42702;50.178;20.992;2022-11-22T15:39:48;98309.98;;;3.94;73.52